createdAt,value
2019-04-25T00:02:43.993Z,8.44
2019-04-25T00:05:14.790Z,8.41
2019-04-25T00:07:44.919Z,8.29
2019-04-25T00:10:14.464Z,8.30
2019-04-25T00:12:44.579Z,8.22
2019-04-25T00:15:14.591Z,8.26
2019-04-25T00:17:44.597Z,8.26
2019-04-25T00:20:14.741Z,8.20
2019-04-25T00:23:05.303Z,8.16
2019-04-25T00:25:52.813Z,8.07
2019-04-25T00:28:22.146Z,7.95
2019-04-25T00:30:52.278Z,7.89
2019-04-25T00:33:22.406Z,7.87
2019-04-25T00:35:52.711Z,7.83
2019-04-25T00:38:22.263Z,7.85
2019-04-25T00:40:52.490Z,8.00
2019-04-25T00:43:22.430Z,8.01
2019-04-25T00:45:52.668Z,7.95
2019-04-25T00:48:22.365Z,7.89
2019-04-25T00:50:54.377Z,7.82
2019-04-25T00:53:22.431Z,7.76
2019-04-25T00:55:52.511Z,7.82
2019-04-25T00:58:29.521Z,7.99
2019-04-25T01:01:21.801Z,7.96
2019-04-25T01:03:53.306Z,7.90
2019-04-25T01:06:22.095Z,7.98
2019-04-25T01:08:51.811Z,7.96
2019-04-25T01:11:22.111Z,7.88
2019-04-25T01:13:52.514Z,7.87
2019-04-25T01:16:22.108Z,7.85
2019-04-25T01:18:51.309Z,7.97
2019-04-25T01:21:20.487Z,8.05
2019-04-25T01:23:49.661Z,8.03
2019-04-25T01:26:18.926Z,7.92
2019-04-25T01:28:48.074Z,7.85
2019-04-25T01:31:19.805Z,7.87
2019-04-25T01:33:48.943Z,7.81
2019-04-25T01:36:37.046Z,7.78
2019-04-25T01:39:29.510Z,7.79
2019-04-25T01:42:23.664Z,7.82
2019-04-25T01:44:53.834Z,7.76
2019-04-25T01:47:24.763Z,7.73
2019-04-25T01:49:54.584Z,7.63
2019-04-25T01:52:24.940Z,7.71
2019-04-25T01:54:55.075Z,7.84
2019-04-25T01:57:26.042Z,7.97
2019-04-25T01:59:56.288Z,8.05
2019-04-25T02:02:27.133Z,8.14
2019-04-25T02:04:57.981Z,8.10
2019-04-25T02:07:27.113Z,8.12
2019-04-25T02:09:57.314Z,8.25
2019-04-25T02:12:38.394Z,8.25
2019-04-25T02:15:07.547Z,8.22
2019-04-25T02:17:36.685Z,8.13
2019-04-25T02:20:06.281Z,8.05
2019-04-25T02:22:35.776Z,7.98
2019-04-25T02:25:05.265Z,7.87
2019-04-25T02:27:34.438Z,8.06
2019-04-25T02:30:06.613Z,8.24
2019-04-25T02:32:37.207Z,8.36
2019-04-25T02:35:09.288Z,8.41
2019-04-25T02:37:36.990Z,8.45
2019-04-25T02:40:08.501Z,8.47
2019-04-25T02:42:38.001Z,8.47
2019-04-25T02:45:37.580Z,8.54
2019-04-25T02:48:34.280Z,8.47
2019-04-25T02:51:08.843Z,8.43
2019-04-25T02:53:40.956Z,8.46
2019-04-25T02:56:27.443Z,8.48
2019-04-25T02:58:40.976Z,8.49
2019-04-25T03:01:19.432Z,8.42
2019-04-25T03:03:44.972Z,8.29
2019-04-25T03:06:14.990Z,8.15
2019-04-25T03:08:45.025Z,7.93
2019-04-25T03:11:15.148Z,7.84
2019-04-25T03:13:44.497Z,7.77
2019-04-25T03:16:14.115Z,7.82
2019-04-25T03:18:58.918Z,7.96
2019-04-25T03:21:31.400Z,8.09
2019-04-25T03:24:01.485Z,8.12
2019-04-25T03:26:39.803Z,8.05
2019-04-25T03:29:01.597Z,7.98
2019-04-25T03:31:30.723Z,7.95
2019-04-25T03:34:02.223Z,7.91
2019-04-25T03:36:30.816Z,7.97
2019-04-25T03:39:00.843Z,8.00
2019-04-25T03:41:29.985Z,8.03
2019-04-25T03:43:59.153Z,8.04
2019-04-25T03:46:28.273Z,8.11
2019-04-25T03:48:57.431Z,8.08
2019-04-25T03:51:26.564Z,8.21
2019-04-25T03:53:55.678Z,8.34
2019-04-25T03:56:25.000Z,8.39
2019-04-25T03:58:54.536Z,8.48
2019-04-25T04:01:25.605Z,8.50
2019-04-25T04:03:54.777Z,8.52
2019-04-25T04:06:24.139Z,8.54
2019-04-25T04:08:53.885Z,8.58
2019-04-25T04:11:23.785Z,8.64
2019-04-25T04:13:53.793Z,8.70
2019-04-25T04:16:26.903Z,8.72
2019-04-25T04:18:57.437Z,8.71
2019-04-25T04:21:36.064Z,8.69
2019-04-25T04:24:14.164Z,8.72
2019-04-25T04:26:46.121Z,8.74
2019-04-25T04:29:15.346Z,8.66
2019-04-25T04:31:44.652Z,8.71
2019-04-25T04:34:14.693Z,8.67
2019-04-25T04:36:46.571Z,8.67
2019-04-25T04:39:16.873Z,8.66
2019-04-25T04:41:46.482Z,8.71
2019-04-25T04:44:16.447Z,8.74
2019-04-25T04:46:45.616Z,8.73
2019-04-25T04:49:15.325Z,8.60
2019-04-25T04:51:44.560Z,8.54
2019-04-25T04:54:14.643Z,8.50
2019-04-25T04:56:44.578Z,8.48
2019-04-25T04:59:14.672Z,8.48
2019-04-25T05:02:16.527Z,8.45
2019-04-25T05:05:03.578Z,8.39
2019-04-25T05:07:58.047Z,8.44
2019-04-25T05:10:27.220Z,8.49
2019-04-25T05:12:56.404Z,8.49
2019-04-25T05:15:25.528Z,8.50
2019-04-25T05:17:56.126Z,8.56
2019-04-25T05:20:25.245Z,8.54
2019-04-25T05:22:55.040Z,8.48
2019-04-25T05:25:24.783Z,8.48
2019-04-25T05:28:00.680Z,8.57
2019-04-25T05:30:31.146Z,8.70
2019-04-25T05:33:00.318Z,8.79
2019-04-25T05:35:29.522Z,8.92
2019-04-25T05:37:58.678Z,9.04
2019-04-25T05:40:28.004Z,9.12
2019-04-25T05:43:05.930Z,9.25
2019-04-25T05:45:35.039Z,9.38
2019-04-25T05:48:06.069Z,9.58
2019-04-25T05:50:35.274Z,9.77
2019-04-25T05:53:04.531Z,9.92
2019-04-25T05:55:34.291Z,10.10
2019-04-25T05:58:03.991Z,10.28
2019-04-25T06:00:34.312Z,10.48
2019-04-25T06:03:03.867Z,10.59
2019-04-25T06:05:33.641Z,10.82
2019-04-25T06:08:04.385Z,10.90
2019-04-25T06:10:53.847Z,11.07
2019-04-25T06:13:51.182Z,11.31
2019-04-25T06:16:27.013Z,11.54
2019-04-25T06:19:19.699Z,11.64
2019-04-25T06:21:49.248Z,11.98
2019-04-25T06:24:42.547Z,12.32
2019-04-25T06:27:31.772Z,12.57
2019-04-25T06:30:15.930Z,12.82
2019-04-25T06:32:45.263Z,13.10
2019-04-25T06:35:14.895Z,13.25
2019-04-25T06:37:44.049Z,13.50
2019-04-25T06:40:14.039Z,13.63
2019-04-25T06:42:43.842Z,13.75
2019-04-25T06:45:38.921Z,13.94
2019-04-25T06:48:29.797Z,13.93
2019-04-25T06:50:58.948Z,14.30
2019-04-25T06:53:28.426Z,14.50
2019-04-25T06:55:57.636Z,14.67
2019-04-25T06:58:27.549Z,14.81
2019-04-25T07:01:00.815Z,15.09
2019-04-25T07:03:29.432Z,15.25
2019-04-25T07:05:58.988Z,15.53
2019-04-25T07:08:29.071Z,15.60
2019-04-25T07:10:58.283Z,15.65
2019-04-25T07:13:28.363Z,15.69
2019-04-25T07:15:57.592Z,15.84
2019-04-25T07:18:31.208Z,16.32
2019-04-25T07:20:57.800Z,16.64
2019-04-25T07:23:26.943Z,16.74
2019-04-25T07:26:03.748Z,17.00
2019-04-25T07:28:54.892Z,16.94
2019-04-25T07:31:44.491Z,16.66
2019-04-25T07:34:19.367Z,16.32
2019-04-25T07:36:48.546Z,17.40
2019-04-25T07:39:17.880Z,17.40
2019-04-25T07:41:47.124Z,17.84
2019-04-25T07:44:16.277Z,18.27
2019-04-25T07:46:45.457Z,18.40
2019-04-25T07:49:14.593Z,18.33
2019-04-25T07:51:45.349Z,18.26
2019-04-25T07:54:14.605Z,18.10
2019-04-25T07:56:44.052Z,18.08
2019-04-25T07:59:13.912Z,18.59
2019-04-25T08:01:43.689Z,18.89
2019-04-25T08:04:13.769Z,19.04
2019-04-25T08:06:44.515Z,18.84
2019-04-25T08:09:15.328Z,18.42
2019-04-25T08:11:44.899Z,18.90
2019-04-25T08:14:19.227Z,19.60
2019-04-25T08:16:51.534Z,20.23
2019-04-25T08:19:20.933Z,20.27
2019-04-25T08:21:50.573Z,19.96
2019-04-25T08:24:20.273Z,19.78
2019-04-25T08:26:49.554Z,19.88
2019-04-25T08:29:18.709Z,20.50
2019-04-25T08:31:47.890Z,20.85
2019-04-25T08:34:17.060Z,20.11
2019-04-25T08:36:46.257Z,20.61
2019-04-25T08:39:15.452Z,20.93
2019-04-25T08:41:45.747Z,21.62
2019-04-25T08:44:15.008Z,21.61
2019-04-25T08:46:48.443Z,21.90
2019-04-25T08:49:45.770Z,21.72
2019-04-25T08:52:14.470Z,21.96
2019-04-25T08:54:54.637Z,22.44
2019-04-25T08:57:44.020Z,22.20
2019-04-25T09:00:25.447Z,21.96
2019-04-25T09:02:58.718Z,22.42
2019-04-25T09:05:46.258Z,22.26
2019-04-25T09:08:15.648Z,21.81
2019-04-25T09:10:45.036Z,21.12
2019-04-25T09:13:14.148Z,21.84
2019-04-25T09:15:45.456Z,22.46
2019-04-25T09:18:14.206Z,22.94
2019-04-25T09:20:46.361Z,23.18
2019-04-25T09:23:14.472Z,23.28
2019-04-25T09:25:44.755Z,23.71
2019-04-25T09:28:14.521Z,23.90
2019-04-25T09:30:44.840Z,25.03
2019-04-25T09:33:14.597Z,24.82
2019-04-25T09:35:45.733Z,24.82
2019-04-25T09:38:14.768Z,25.68
2019-04-25T09:40:44.522Z,26.13
2019-04-25T09:43:14.641Z,26.03
2019-04-25T09:46:05.726Z,26.30
2019-04-25T09:48:44.307Z,26.29
2019-04-25T09:51:33.589Z,26.71
2019-04-25T09:54:24.949Z,26.93
2019-04-25T09:56:57.215Z,26.06
2019-04-25T09:59:29.863Z,25.39
2019-04-25T10:01:57.702Z,24.96
2019-04-25T10:04:26.851Z,25.75
2019-04-25T10:06:56.206Z,26.27
2019-04-25T10:09:26.089Z,27.16
2019-04-25T10:11:55.359Z,26.96
2019-04-25T10:14:55.068Z,27.40
2019-04-25T10:17:24.274Z,26.87
2019-04-25T10:19:53.433Z,26.12
2019-04-25T10:22:23.741Z,27.15
2019-04-25T10:25:00.252Z,27.15
2019-04-25T10:27:24.234Z,26.14
2019-04-25T10:29:56.945Z,26.91
2019-04-25T10:32:24.381Z,26.98
2019-04-25T10:34:53.536Z,26.90
2019-04-25T10:37:23.073Z,27.10
2019-04-25T10:39:54.228Z,26.82
2019-04-25T10:42:23.926Z,27.32
2019-04-25T10:44:56.150Z,26.28
2019-04-25T10:47:24.219Z,26.60
2019-04-25T10:49:55.333Z,26.81
2019-04-25T10:52:24.259Z,27.40
2019-04-25T10:54:54.287Z,26.18
2019-04-25T10:57:24.946Z,27.12
2019-04-25T11:00:05.929Z,27.70
2019-04-25T11:02:26.587Z,28.65
2019-04-25T11:05:01.301Z,29.17
2019-04-25T11:07:30.456Z,28.95
2019-04-25T11:09:59.662Z,28.90
2019-04-25T11:12:28.809Z,28.60
2019-04-25T11:14:57.985Z,28.97
2019-04-25T11:17:27.149Z,28.97
2019-04-25T11:19:56.327Z,28.83
2019-04-25T11:22:25.540Z,27.95
2019-04-25T11:24:55.083Z,26.85
2019-04-25T11:27:24.668Z,26.84
2019-04-25T11:30:08.257Z,28.50
2019-04-25T11:32:27.499Z,29.38
2019-04-25T11:34:57.343Z,30.51
2019-04-25T11:37:29.419Z,30.51
2019-04-25T11:40:04.617Z,29.35
2019-04-25T11:42:33.933Z,28.96
2019-04-25T11:45:05.923Z,29.08
2019-04-25T11:47:35.577Z,28.66
2019-04-25T11:50:05.222Z,28.59
2019-04-25T11:52:34.747Z,29.03
2019-04-25T11:55:04.232Z,28.88
2019-04-25T11:57:33.448Z,28.26
2019-04-25T12:00:04.214Z,28.28
2019-04-25T12:02:34.371Z,28.15
2019-04-25T12:05:03.549Z,28.11
2019-04-25T12:07:33.825Z,28.41
2019-04-25T12:10:04.373Z,27.98
2019-04-25T12:12:34.740Z,27.83
2019-04-25T12:15:04.864Z,27.73
2019-04-25T12:17:35.301Z,27.44
2019-04-25T12:20:04.669Z,27.74
2019-04-25T12:22:34.336Z,27.50
2019-04-25T12:25:04.662Z,27.60
2019-04-25T12:27:33.863Z,27.60
2019-04-25T12:30:03.884Z,27.75
2019-04-25T12:32:35.284Z,27.90
2019-04-25T12:35:06.211Z,28.47
2019-04-25T12:37:35.469Z,27.98
2019-04-25T12:40:07.245Z,28.55
2019-04-25T12:42:36.410Z,29.13
2019-04-25T12:45:37.111Z,29.11
2019-04-25T12:48:08.203Z,29.15
2019-04-25T12:50:37.377Z,29.19
2019-04-25T12:53:06.817Z,28.89
2019-04-25T12:55:35.974Z,28.93
2019-04-25T12:58:05.864Z,28.46
2019-04-25T13:00:47.271Z,29.13
2019-04-25T13:03:06.902Z,29.26
2019-04-25T13:05:36.205Z,28.73
2019-04-25T13:08:05.568Z,28.06
2019-04-25T13:10:35.537Z,28.79
2019-04-25T13:13:04.937Z,29.06
2019-04-25T13:15:34.756Z,29.60
2019-04-25T13:18:04.387Z,29.37
2019-04-25T13:20:33.822Z,29.41
2019-04-25T13:23:03.574Z,29.78
2019-04-25T13:25:34.272Z,30.00
2019-04-25T13:28:25.243Z,29.51
2019-04-25T13:31:23.327Z,29.22
2019-04-25T13:34:01.524Z,29.29
2019-04-25T13:36:30.953Z,29.27
2019-04-25T13:39:00.176Z,29.55
2019-04-25T13:41:29.427Z,29.64
2019-04-25T13:43:58.942Z,29.46
2019-04-25T13:46:28.131Z,28.97
2019-04-25T13:48:57.281Z,29.05
2019-04-25T13:51:26.714Z,29.54
2019-04-25T13:53:55.905Z,29.21
2019-04-25T13:56:26.546Z,28.94
2019-04-25T13:58:56.051Z,29.42
2019-04-25T14:01:25.980Z,29.43
2019-04-25T14:03:55.640Z,29.62
2019-04-25T14:06:24.789Z,29.98
2019-04-25T14:08:54.060Z,29.99
2019-04-25T14:11:24.104Z,29.70
2019-04-25T14:13:53.401Z,29.66
2019-04-25T14:16:34.591Z,29.85
2019-04-25T14:19:34.732Z,30.10
2019-04-25T14:22:04.437Z,29.54
2019-04-25T14:24:35.686Z,29.68
2019-04-25T14:27:04.591Z,30.21
2019-04-25T14:29:34.807Z,30.20
2019-04-25T14:32:05.839Z,30.09
2019-04-25T14:34:35.017Z,30.29
2019-04-25T14:37:04.324Z,29.64
2019-04-25T14:39:33.512Z,29.15
2019-04-25T14:42:02.972Z,29.15
2019-04-25T14:44:32.350Z,29.33
2019-04-25T14:47:01.572Z,29.72
2019-04-25T14:49:30.754Z,30.00
2019-04-25T14:52:00.018Z,29.86
2019-04-25T14:54:36.097Z,29.41
2019-04-25T14:57:09.965Z,29.51
2019-04-25T14:59:39.579Z,29.22
2019-04-25T15:02:08.874Z,28.56
2019-04-25T15:04:38.054Z,28.44
2019-04-25T15:07:07.258Z,28.60
2019-04-25T15:09:36.575Z,28.44
2019-04-25T15:12:05.837Z,28.62
2019-04-25T15:14:35.072Z,28.35
2019-04-25T15:17:04.976Z,28.22
2019-04-25T15:19:34.148Z,28.15
2019-04-25T15:22:03.367Z,28.07
2019-04-25T15:24:32.785Z,27.90
2019-04-25T15:27:01.959Z,27.88
2019-04-25T15:29:31.148Z,27.89
2019-04-25T15:32:00.294Z,27.89
2019-04-25T15:34:35.979Z,27.63
2019-04-25T15:37:11.283Z,27.58
2019-04-25T15:39:47.976Z,27.41
2019-04-25T15:42:42.659Z,27.04
2019-04-25T15:45:43.106Z,27.05
2019-04-25T15:48:12.433Z,26.99
2019-04-25T15:50:41.669Z,27.01
2019-04-25T15:53:10.829Z,27.31
2019-04-25T15:55:40.789Z,27.68
2019-04-25T15:58:10.375Z,27.89
2019-04-25T16:00:39.630Z,28.00
2019-04-25T16:03:08.978Z,28.27
2019-04-25T16:05:38.469Z,28.34
2019-04-25T16:08:07.593Z,28.38
2019-04-25T16:10:37.178Z,28.53
2019-04-25T16:13:07.214Z,28.21
2019-04-25T16:15:36.413Z,27.78
2019-04-25T16:18:06.461Z,27.55
2019-04-25T16:20:35.796Z,27.58
2019-04-25T16:23:05.391Z,27.75
2019-04-25T16:25:35.421Z,27.62
2019-04-25T16:28:04.784Z,27.46
2019-04-25T16:30:34.566Z,27.39
2019-04-25T16:33:04.504Z,27.40
2019-04-25T16:35:33.668Z,27.18
2019-04-25T16:38:03.222Z,26.93
2019-04-25T16:40:32.404Z,26.70
2019-04-25T16:43:03.810Z,26.46
2019-04-25T16:45:33.858Z,26.22
2019-04-25T16:48:03.405Z,26.06
2019-04-25T16:50:34.221Z,26.04
2019-04-25T16:53:03.396Z,25.86
2019-04-25T16:55:32.865Z,25.66
2019-04-25T16:58:02.116Z,25.55
2019-04-25T17:00:53.115Z,25.39
2019-04-25T17:03:24.382Z,25.35
2019-04-25T17:05:53.603Z,25.00
2019-04-25T17:08:22.792Z,24.59
2019-04-25T17:10:51.956Z,23.75
2019-04-25T17:13:21.290Z,23.50
2019-04-25T17:16:03.686Z,23.48
2019-04-25T17:18:38.281Z,23.42
2019-04-25T17:21:11.600Z,23.40
2019-04-25T17:23:39.865Z,22.84
2019-04-25T17:26:09.518Z,22.76
2019-04-25T17:28:41.209Z,22.47
2019-04-25T17:31:30.019Z,22.13
2019-04-25T17:34:18.142Z,21.83
2019-04-25T17:36:53.688Z,21.80
2019-04-25T17:39:42.178Z,21.73
2019-04-25T17:42:11.440Z,21.45
2019-04-25T17:44:40.701Z,21.34
2019-04-25T17:47:09.897Z,21.34
2019-04-25T17:49:39.421Z,21.22
2019-04-25T17:52:08.522Z,20.90
2019-04-25T17:54:38.881Z,20.87
2019-04-25T17:57:08.246Z,20.60
2019-04-25T17:59:37.432Z,20.43
2019-04-25T18:02:06.698Z,19.99
2019-04-25T18:04:35.953Z,19.82
2019-04-25T18:07:05.702Z,19.68
2019-04-25T18:09:35.479Z,19.50
2019-04-25T18:12:05.465Z,19.43
2019-04-25T18:14:35.184Z,19.48
2019-04-25T18:17:04.617Z,19.18
2019-04-25T18:19:38.511Z,18.96
2019-04-25T18:22:23.795Z,18.81
2019-04-25T18:25:17.904Z,18.54
2019-04-25T18:28:10.776Z,18.46
2019-04-25T18:30:41.173Z,18.41
2019-04-25T18:33:41.811Z,18.30
2019-04-25T18:36:29.061Z,18.05
2019-04-25T18:39:15.194Z,17.74
2019-04-25T18:41:48.532Z,17.47
2019-04-25T18:44:18.044Z,17.34
2019-04-25T18:46:47.918Z,17.13
2019-04-25T18:49:17.138Z,16.88
2019-04-25T18:51:56.671Z,16.75
2019-04-25T18:54:29.165Z,16.51
2019-04-25T18:57:11.327Z,16.19
2019-04-25T19:00:05.702Z,16.25
2019-04-25T19:03:03.261Z,16.14
2019-04-25T19:05:42.846Z,16.20
2019-04-25T19:08:12.070Z,16.19
2019-04-25T19:10:41.339Z,15.96
2019-04-25T19:13:12.738Z,15.90
2019-04-25T19:15:41.518Z,15.79
2019-04-25T19:18:10.706Z,15.79
2019-04-25T19:20:40.008Z,15.62
2019-04-25T19:23:09.288Z,15.63
2019-04-25T19:25:40.146Z,15.46
2019-04-25T19:28:09.390Z,15.41
2019-04-25T19:30:38.664Z,15.31
2019-04-25T19:33:09.032Z,15.21
2019-04-25T19:35:39.510Z,15.14
2019-04-25T19:38:09.186Z,15.06
2019-04-25T19:40:52.491Z,15.09
2019-04-25T19:43:34.808Z,15.06
2019-04-25T19:46:03.983Z,14.89
2019-04-25T19:48:33.210Z,14.65
2019-04-25T19:51:02.395Z,14.60
2019-04-25T19:53:31.569Z,14.53
2019-04-25T19:56:00.869Z,14.50
2019-04-25T19:58:30.101Z,14.46
2019-04-25T20:00:59.285Z,14.36
2019-04-25T20:03:58.569Z,14.46
2019-04-25T20:07:05.084Z,14.22
2019-04-25T20:09:53.217Z,14.15
2019-04-25T20:12:23.226Z,14.20
2019-04-25T20:14:53.505Z,14.08
2019-04-25T20:17:22.813Z,13.94
2019-04-25T20:19:51.981Z,13.96
2019-04-25T20:22:21.158Z,13.98
2019-04-25T20:24:50.664Z,13.84
2019-04-25T20:27:20.164Z,13.84
2019-04-25T20:29:49.345Z,13.96
2019-04-25T20:32:18.553Z,13.91
2019-04-25T20:34:47.728Z,13.87
2019-04-25T20:37:16.883Z,13.79
2019-04-25T20:39:46.078Z,13.72
2019-04-25T20:42:15.253Z,13.63
2019-04-25T20:44:45.567Z,13.50
2019-04-25T20:47:15.449Z,13.51
2019-04-25T20:49:44.658Z,13.48
2019-04-25T20:52:13.841Z,13.45
2019-04-25T20:54:43.080Z,13.41
2019-04-25T20:57:12.227Z,13.38
2019-04-25T20:59:41.394Z,13.18
2019-04-25T21:02:10.695Z,13.19
2019-04-25T21:04:40.219Z,13.12
2019-04-25T21:07:09.478Z,13.10
2019-04-25T21:09:38.962Z,13.11
2019-04-25T21:12:08.370Z,13.10
2019-04-25T21:14:49.239Z,13.09
2019-04-25T21:17:22.582Z,13.09
2019-04-25T21:19:52.814Z,13.01
2019-04-25T21:22:22.092Z,12.97
2019-04-25T21:24:51.868Z,12.97
2019-04-25T21:27:21.076Z,12.83
2019-04-25T21:29:52.005Z,12.82
2019-04-25T21:32:22.722Z,12.78
2019-04-25T21:34:53.034Z,12.76
2019-04-25T21:37:22.293Z,12.70
2019-04-25T21:40:03.244Z,12.61
2019-04-25T21:42:57.996Z,12.56
2019-04-25T21:45:27.482Z,12.59
2019-04-25T21:47:56.907Z,12.60
2019-04-25T21:50:26.353Z,12.58
2019-04-25T21:52:55.603Z,12.57
2019-04-25T21:55:25.115Z,12.49
2019-04-25T21:57:55.846Z,12.38
2019-04-25T22:00:43.371Z,12.42
2019-04-25T22:03:13.515Z,12.32
2019-04-25T22:05:42.892Z,12.26
2019-04-25T22:08:12.419Z,12.21
2019-04-25T22:10:41.884Z,12.16
2019-04-25T22:13:16.932Z,12.13
2019-04-25T22:15:42.732Z,12.09
2019-04-25T22:18:11.924Z,12.09
2019-04-25T22:20:41.154Z,12.09
2019-04-25T22:23:10.592Z,12.05
2019-04-25T22:25:40.017Z,12.01
2019-04-25T22:28:09.342Z,12.03
2019-04-25T22:30:39.242Z,11.95
2019-04-25T22:33:30.139Z,11.94
2019-04-25T22:36:04.154Z,11.88
2019-04-25T22:38:33.318Z,11.88
2019-04-25T22:41:03.554Z,11.87
2019-04-25T22:43:35.026Z,11.82
2019-04-25T22:46:04.456Z,11.79
2019-04-25T22:48:49.229Z,11.75
2019-04-25T22:51:18.724Z,11.76
2019-04-25T22:53:48.478Z,11.74
2019-04-25T22:56:17.664Z,11.73
2019-04-25T22:58:47.041Z,11.72
2019-04-25T23:01:34.199Z,11.82
2019-04-25T23:04:08.017Z,11.75
2019-04-25T23:06:37.641Z,11.71
2019-04-25T23:09:08.190Z,11.67
2019-04-25T23:11:37.406Z,11.59
2019-04-25T23:14:07.146Z,11.54
2019-04-25T23:16:36.463Z,11.52
2019-04-25T23:19:05.690Z,11.51
2019-04-25T23:21:35.436Z,11.55
2019-04-25T23:24:05.485Z,11.48
2019-04-25T23:26:52.658Z,11.51
2019-04-25T23:29:21.826Z,11.40
2019-04-25T23:31:51.171Z,11.18
2019-04-25T23:34:20.637Z,11.10
2019-04-25T23:36:49.801Z,11.07
2019-04-25T23:39:19.224Z,11.00
2019-04-25T23:41:48.397Z,11.08
2019-04-25T23:44:17.534Z,11.08
2019-04-25T23:46:46.830Z,11.11
2019-04-25T23:49:16.990Z,11.16
2019-04-25T23:51:46.584Z,11.11
2019-04-25T23:54:15.721Z,11.08
2019-04-25T23:56:45.011Z,10.86
2019-04-25T23:59:14.421Z,10.62
